createdAt,value
2023-05-22T00:02:33.096Z,16.16
2023-05-22T00:07:34.673Z,16.14
2023-05-22T00:12:36.182Z,15.98
2023-05-22T00:17:38.029Z,15.98
2023-05-22T00:22:39.639Z,15.92
2023-05-22T00:27:41.114Z,15.88
2023-05-22T00:32:42.697Z,15.83
2023-05-22T00:37:46.077Z,15.79
2023-05-22T00:42:47.803Z,15.66
2023-05-22T00:47:49.352Z,15.62
2023-05-22T00:52:50.876Z,15.65
2023-05-22T00:57:52.433Z,15.72
2023-05-22T01:02:54.016Z,15.72
2023-05-22T01:07:57.192Z,15.63
2023-05-22T01:13:23.961Z,15.47
2023-05-22T01:18:37.613Z,15.39
2023-05-22T01:23:54.308Z,15.29
2023-05-22T01:29:14.530Z,15.24
2023-05-22T01:34:17.370Z,15.12
2023-05-22T01:39:19.542Z,15.09
2023-05-22T01:44:21.231Z,15.08
2023-05-22T01:49:22.698Z,15.05
2023-05-22T01:54:37.059Z,14.93
2023-05-22T01:59:45.985Z,14.90
2023-05-22T02:04:58.751Z,14.92
2023-05-22T02:10:01.324Z,14.90
2023-05-22T02:15:03.409Z,14.95
2023-05-22T02:20:05.610Z,14.99
2023-05-22T02:25:11.734Z,15.11
2023-05-22T02:30:14.794Z,15.27
2023-05-22T02:35:16.421Z,15.39
2023-05-22T02:40:18.190Z,15.48
2023-05-22T02:45:19.848Z,15.46
2023-05-22T02:50:21.306Z,15.51
2023-05-22T02:55:22.784Z,15.61
2023-05-22T03:00:24.394Z,15.64
2023-05-22T03:05:25.856Z,15.63
2023-05-22T03:10:27.524Z,15.71
2023-05-22T03:15:29.007Z,15.79
2023-05-22T03:20:31.181Z,15.81
2023-05-22T03:25:32.633Z,15.77
2023-05-22T03:30:34.142Z,15.72
2023-05-22T03:35:36.307Z,15.70
2023-05-22T03:40:38.027Z,15.73
2023-05-22T03:45:39.747Z,15.77
2023-05-22T03:50:41.498Z,15.78
2023-05-22T03:55:43.339Z,15.87
2023-05-22T04:00:46.311Z,16.02
2023-05-22T04:05:47.797Z,16.13
2023-05-22T04:10:49.297Z,16.27
2023-05-22T04:15:52.722Z,16.73
2023-05-22T04:20:54.324Z,17.40
2023-05-22T04:25:55.786Z,18.05
2023-05-22T04:31:00.217Z,18.65
2023-05-22T04:36:02.742Z,19.31
2023-05-22T04:41:04.406Z,19.78
2023-05-22T04:46:08.375Z,20.51
2023-05-22T04:51:10.065Z,21.16
2023-05-22T04:56:13.129Z,22.02
2023-05-22T05:01:16.658Z,23.00
2023-05-22T05:06:18.202Z,24.04
2023-05-22T05:11:19.730Z,24.81
2023-05-22T05:16:21.679Z,25.65
2023-05-22T05:21:23.246Z,26.31
2023-05-22T05:26:25.036Z,27.39
2023-05-22T05:31:26.585Z,29.11
2023-05-22T05:36:28.993Z,30.71
2023-05-22T05:41:30.734Z,31.58
2023-05-22T05:46:32.307Z,32.77
2023-05-22T05:51:33.814Z,33.54
2023-05-22T05:56:35.812Z,34.07
2023-05-22T06:01:38.627Z,34.54
2023-05-22T06:06:40.334Z,31.32
2023-05-22T06:11:41.799Z,30.52
2023-05-22T06:16:44.197Z,31.46
2023-05-22T06:21:45.666Z,32.93
2023-05-22T06:26:47.116Z,33.07
2023-05-22T06:31:48.721Z,33.79
2023-05-22T06:36:52.895Z,34.81
2023-05-22T06:41:54.346Z,36.15
2023-05-22T06:46:55.863Z,35.74
2023-05-22T06:51:57.342Z,32.99
2023-05-22T06:56:59.526Z,31.60
2023-05-22T07:02:01.339Z,29.35
2023-05-22T07:07:02.872Z,28.84
2023-05-22T07:12:05.573Z,27.28
2023-05-22T07:17:07.041Z,25.50
2023-05-22T07:22:08.478Z,24.99
2023-05-22T07:27:11.369Z,24.77
2023-05-22T07:32:12.885Z,26.31
2023-05-22T07:37:14.462Z,29.25
2023-05-22T07:42:16.066Z,28.59
2023-05-22T07:47:17.616Z,29.40
2023-05-22T07:52:19.355Z,28.59
2023-05-22T07:57:21.259Z,31.53
2023-05-22T08:02:23.122Z,35.15
2023-05-22T08:07:24.804Z,38.80
2023-05-22T08:12:26.293Z,40.86
2023-05-22T08:17:27.785Z,41.72
2023-05-22T08:22:30.134Z,42.29
2023-05-22T08:27:31.681Z,43.00
2023-05-22T08:32:33.171Z,39.33
2023-05-22T08:37:34.715Z,37.48
2023-05-22T08:42:36.950Z,33.37
2023-05-22T08:47:41.056Z,37.48
2023-05-22T08:52:52.762Z,37.44
2023-05-22T08:57:56.682Z,38.37
2023-05-22T09:02:59.028Z,38.75
2023-05-22T09:08:16.081Z,39.26
2023-05-22T09:13:31.749Z,38.02
2023-05-22T09:18:33.242Z,40.06
2023-05-22T09:23:35.068Z,40.79
2023-05-22T09:28:37.150Z,39.96
2023-05-22T09:33:38.619Z,38.32
2023-05-22T09:38:40.113Z,36.64
2023-05-22T09:43:50.565Z,35.46
2023-05-22T09:48:52.688Z,34.57
2023-05-22T09:54:03.394Z,33.74
2023-05-22T09:59:09.606Z,32.74
2023-05-22T10:04:14.305Z,32.87
2023-05-22T10:09:19.695Z,32.49
2023-05-22T10:14:22.454Z,32.25
2023-05-22T10:19:27.338Z,32.05
2023-05-22T10:24:29.569Z,31.05
2023-05-22T10:29:42.440Z,31.72
2023-05-22T10:34:54.072Z,31.43
2023-05-22T10:40:08.198Z,31.02
2023-05-22T10:45:11.177Z,30.40
2023-05-22T10:50:12.849Z,30.42
2023-05-22T10:55:14.422Z,29.93
2023-05-22T11:00:16.394Z,29.39
2023-05-22T11:05:25.657Z,29.59
2023-05-22T11:10:27.657Z,30.15
2023-05-22T11:15:32.512Z,30.03
2023-05-22T11:20:37.677Z,30.05
2023-05-22T11:25:41.123Z,30.16
2023-05-22T11:30:43.140Z,30.43
2023-05-22T11:35:47.603Z,30.24
2023-05-22T11:40:51.932Z,30.52
2023-05-22T11:45:53.441Z,30.90
2023-05-22T11:50:54.936Z,31.13
2023-05-22T11:55:56.406Z,31.12
2023-05-22T12:01:03.213Z,31.56
2023-05-22T12:06:05.112Z,32.14
2023-05-22T12:11:07.348Z,32.81
2023-05-22T12:16:19.897Z,32.86
2023-05-22T12:21:21.808Z,32.48
2023-05-22T12:26:23.337Z,32.57
2023-05-22T12:31:25.983Z,32.74
2023-05-22T12:36:33.500Z,33.17
2023-05-22T12:41:35.643Z,32.80
2023-05-22T12:46:37.259Z,32.84
2023-05-22T12:51:38.808Z,32.82
2023-05-22T12:56:40.336Z,32.84
2023-05-22T13:01:41.864Z,32.89
2023-05-22T13:06:43.374Z,32.64
2023-05-22T13:11:44.862Z,32.67
2023-05-22T13:16:46.402Z,31.98
2023-05-22T13:21:47.888Z,32.29
2023-05-22T13:26:49.373Z,31.93
2023-05-22T13:31:50.824Z,31.62
2023-05-22T13:36:52.304Z,31.48
2023-05-22T13:41:53.855Z,31.36
2023-05-22T13:46:55.534Z,31.29
2023-05-22T13:51:56.993Z,31.16
2023-05-22T13:56:59.940Z,31.41
2023-05-22T14:02:01.607Z,31.35
2023-05-22T14:07:03.188Z,30.60
2023-05-22T14:12:04.790Z,30.32
2023-05-22T14:17:07.809Z,30.18
2023-05-22T14:22:09.396Z,30.47
2023-05-22T14:27:11.151Z,30.71
2023-05-22T14:32:12.661Z,30.17
2023-05-22T14:37:14.147Z,30.24
2023-05-22T14:42:15.711Z,30.28
2023-05-22T14:47:17.188Z,30.61
2023-05-22T14:52:18.708Z,30.39
2023-05-22T14:57:20.302Z,30.13
2023-05-22T15:02:23.651Z,30.26
2023-05-22T15:07:39.643Z,30.56
2023-05-22T15:12:45.277Z,30.77
2023-05-22T15:17:46.760Z,30.84
2023-05-22T15:22:48.270Z,30.73
2023-05-22T15:27:49.887Z,30.56
2023-05-22T15:32:51.594Z,30.62
2023-05-22T15:37:53.119Z,30.61
2023-05-22T15:42:54.856Z,30.65
2023-05-22T15:47:56.786Z,30.54
2023-05-22T15:52:58.875Z,30.30
2023-05-22T15:58:01.726Z,30.08
2023-05-22T16:03:03.409Z,29.58
2023-05-22T16:08:10.479Z,29.41
2023-05-22T16:13:11.998Z,29.38
2023-05-22T16:18:13.608Z,29.13
2023-05-22T16:23:15.142Z,28.82
2023-05-22T16:28:17.161Z,28.26
2023-05-22T16:33:18.657Z,27.28
2023-05-22T16:38:20.133Z,26.64
2023-05-22T16:43:21.585Z,26.25
2023-05-22T16:48:23.102Z,25.98
2023-05-22T16:53:24.669Z,25.83
2023-05-22T16:58:26.522Z,25.47
2023-05-22T17:03:28.270Z,25.27
2023-05-22T17:08:30.094Z,25.22
2023-05-22T17:13:31.773Z,25.03
2023-05-22T17:18:33.290Z,24.54
2023-05-22T17:23:37.172Z,24.42
2023-05-22T17:28:38.642Z,24.24
2023-05-22T17:33:40.126Z,24.14
2023-05-22T17:38:41.605Z,24.26
2023-05-22T17:43:43.110Z,24.21
2023-05-22T17:48:44.599Z,24.04
2023-05-22T17:53:46.089Z,23.89
2023-05-22T17:58:47.566Z,23.64
2023-05-22T18:03:49.273Z,23.59
2023-05-22T18:08:50.973Z,23.80
2023-05-22T18:13:52.483Z,23.89
2023-05-22T18:18:53.964Z,23.90
2023-05-22T18:23:55.897Z,23.75
2023-05-22T18:28:57.404Z,23.63
2023-05-22T18:33:58.862Z,23.59
2023-05-22T18:39:00.464Z,23.43
2023-05-22T18:44:01.953Z,23.31
2023-05-22T18:49:04.013Z,23.19
2023-05-22T18:54:05.505Z,23.00
2023-05-22T18:59:06.976Z,22.78
2023-05-22T19:04:08.962Z,22.47
2023-05-22T19:09:10.463Z,22.23
2023-05-22T19:14:11.984Z,22.03
2023-05-22T19:19:14.773Z,21.98
2023-05-22T19:24:16.482Z,21.70
2023-05-22T19:29:17.949Z,21.42
2023-05-22T19:34:19.450Z,21.27
2023-05-22T19:39:20.930Z,21.22
2023-05-22T19:44:22.454Z,21.15
2023-05-22T19:49:23.959Z,21.16
2023-05-22T19:54:25.431Z,21.13
2023-05-22T19:59:27.087Z,21.13
2023-05-22T20:04:28.542Z,21.09
2023-05-22T20:09:30.014Z,21.01
2023-05-22T20:14:31.471Z,20.71
2023-05-22T20:19:34.468Z,20.43
2023-05-22T20:24:37.132Z,20.27
2023-05-22T20:29:38.711Z,20.21
2023-05-22T20:34:40.388Z,20.20
2023-05-22T20:39:41.825Z,20.01
2023-05-22T20:44:43.465Z,19.86
2023-05-22T20:49:44.934Z,19.67
2023-05-22T20:54:46.452Z,19.56
2023-05-22T20:59:47.906Z,19.58
2023-05-22T21:04:49.344Z,19.49
2023-05-22T21:09:50.970Z,19.36
2023-05-22T21:14:52.474Z,19.39
2023-05-22T21:19:54.052Z,19.42
2023-05-22T21:24:55.720Z,19.45
2023-05-22T21:29:57.296Z,19.47
2023-05-22T21:34:58.818Z,19.45
2023-05-22T21:40:00.348Z,19.35
2023-05-22T21:45:01.790Z,19.24
2023-05-22T21:50:04.991Z,19.06
2023-05-22T21:55:07.330Z,18.88
2023-05-22T22:00:09.299Z,18.77
2023-05-22T22:05:13.616Z,18.75
2023-05-22T22:10:15.060Z,18.72
2023-05-22T22:15:16.607Z,18.63
2023-05-22T22:20:24.802Z,18.57
2023-05-22T22:25:32.018Z,18.43
2023-05-22T22:30:33.479Z,18.51
2023-05-22T22:35:35.079Z,18.74
2023-05-22T22:40:36.537Z,18.79
2023-05-22T22:45:40.040Z,18.77
2023-05-22T22:50:41.959Z,18.74
2023-05-22T22:55:43.802Z,18.73
2023-05-22T23:00:45.316Z,18.78
2023-05-22T23:05:46.844Z,18.92
2023-05-22T23:10:48.323Z,19.02
2023-05-22T23:15:49.997Z,19.08
2023-05-22T23:20:51.456Z,19.10
2023-05-22T23:25:52.891Z,19.11
2023-05-22T23:30:54.825Z,19.15
2023-05-22T23:35:57.403Z,19.16
2023-05-22T23:40:58.910Z,19.22
2023-05-22T23:46:00.456Z,19.13
2023-05-22T23:51:02.799Z,19.11
2023-05-22T23:56:04.583Z,18.95
